sensor_id;sensor_type;location;lat;lon;timestamp;P1;durP1;ratioP1;P2;durP2;ratioP2
11935;SDS011;6027;48.576;9.180;2022-10-31T00:04:07;5.97;;;5.18;;
11935;SDS011;6027;48.576;9.180;2022-10-31T00:06:32;9.93;;;4.53;;
11935;SDS011;6027;48.576;9.180;2022-10-31T00:08:59;7.75;;;3.95;;
11935;SDS011;6027;48.576;9.180;2022-10-31T00:11:26;7.97;;;4.13;;
11935;SDS011;6027;48.576;9.180;2022-10-31T00:13:52;7.68;;;4.18;;
11935;SDS011;6027;48.576;9.180;2022-10-31T00:16:18;8.82;;;3.97;;
11935;SDS011;6027;48.576;9.180;2022-10-31T00:18:52;7.72;;;4.85;;
11935;SDS011;6027;48.576;9.180;2022-10-31T00:21:22;8.23;;;4.10;;
11935;SDS011;6027;48.576;9.180;2022-10-31T00:23:48;10.38;;;7.35;;
11935;SDS011;6027;48.576;9.180;2022-10-31T00:26:14;6.78;;;5.78;;
11935;SDS011;6027;48.576;9.180;2022-10-31T00:28:41;7.20;;;4.90;;
11935;SDS011;6027;48.576;9.180;2022-10-31T00:31:08;10.40;;;6.05;;
11935;SDS011;6027;48.576;9.180;2022-10-31T00:33:35;10.95;;;5.50;;
11935;SDS011;6027;48.576;9.180;2022-10-31T00:36:03;9.63;;;4.85;;
11935;SDS011;6027;48.576;9.180;2022-10-31T00:38:29;6.55;;;4.85;;
11935;SDS011;6027;48.576;9.180;2022-10-31T00:40:55;6.97;;;4.95;;
11935;SDS011;6027;48.576;9.180;2022-10-31T00:43:21;8.68;;;4.70;;
11935;SDS011;6027;48.576;9.180;2022-10-31T00:45:46;6.95;;;3.58;;
11935;SDS011;6027;48.576;9.180;2022-10-31T00:48:12;6.63;;;4.50;;
11935;SDS011;6027;48.576;9.180;2022-10-31T00:50:37;7.85;;;4.55;;
11935;SDS011;6027;48.576;9.180;2022-10-31T00:53:03;8.60;;;4.10;;
11935;SDS011;6027;48.576;9.180;2022-10-31T00:55:28;7.60;;;4.00;;
11935;SDS011;6027;48.576;9.180;2022-10-31T00:57:54;4.70;;;4.20;;
11935;SDS011;6027;48.576;9.180;2022-10-31T01:00:20;6.60;;;4.10;;
11935;SDS011;6027;48.576;9.180;2022-10-31T01:02:46;9.30;;;4.40;;
11935;SDS011;6027;48.576;9.180;2022-10-31T01:05:11;5.75;;;3.80;;
11935;SDS011;6027;48.576;9.180;2022-10-31T01:07:40;6.00;;;3.28;;
11935;SDS011;6027;48.576;9.180;2022-10-31T01:10:06;8.25;;;3.63;;
11935;SDS011;6027;48.576;9.180;2022-10-31T01:12:39;5.90;;;3.55;;
11935;SDS011;6027;48.576;9.180;2022-10-31T01:15:06;5.40;;;3.78;;
11935;SDS011;6027;48.576;9.180;2022-10-31T01:17:32;8.63;;;3.78;;
11935;SDS011;6027;48.576;9.180;2022-10-31T01:19:58;5.75;;;3.83;;
11935;SDS011;6027;48.576;9.180;2022-10-31T01:22:23;5.45;;;3.60;;
11935;SDS011;6027;48.576;9.180;2022-10-31T01:24:49;5.50;;;3.72;;
11935;SDS011;6027;48.576;9.180;2022-10-31T01:27:15;12.52;;;3.80;;
11935;SDS011;6027;48.576;9.180;2022-10-31T01:29:40;7.70;;;3.17;;
11935;SDS011;6027;48.576;9.180;2022-10-31T01:32:05;6.05;;;3.50;;
11935;SDS011;6027;48.576;9.180;2022-10-31T01:34:31;3.92;;;2.90;;
11935;SDS011;6027;48.576;9.180;2022-10-31T01:36:56;4.35;;;2.90;;
11935;SDS011;6027;48.576;9.180;2022-10-31T01:39:22;6.75;;;3.03;;
11935;SDS011;6027;48.576;9.180;2022-10-31T01:41:48;5.63;;;2.78;;
11935;SDS011;6027;48.576;9.180;2022-10-31T01:46:45;6.55;;;3.03;;
11935;SDS011;6027;48.576;9.180;2022-10-31T01:49:18;6.13;;;3.25;;
11935;SDS011;6027;48.576;9.180;2022-10-31T01:51:50;4.75;;;2.65;;
11935;SDS011;6027;48.576;9.180;2022-10-31T01:54:21;2.78;;;2.40;;
11935;SDS011;6027;48.576;9.180;2022-10-31T01:56:52;3.25;;;2.90;;
11935;SDS011;6027;48.576;9.180;2022-10-31T01:59:19;7.97;;;3.20;;
11935;SDS011;6027;48.576;9.180;2022-10-31T02:01:47;7.18;;;3.25;;
11935;SDS011;6027;48.576;9.180;2022-10-31T02:04:15;6.03;;;2.95;;
11935;SDS011;6027;48.576;9.180;2022-10-31T02:06:46;5.63;;;3.00;;
11935;SDS011;6027;48.576;9.180;2022-10-31T02:09:14;6.32;;;3.00;;
11935;SDS011;6027;48.576;9.180;2022-10-31T02:11:42;5.50;;;3.30;;
11935;SDS011;6027;48.576;9.180;2022-10-31T02:14:09;3.30;;;2.85;;
11935;SDS011;6027;48.576;9.180;2022-10-31T02:16:35;3.72;;;2.70;;
11935;SDS011;6027;48.576;9.180;2022-10-31T02:19:00;3.90;;;3.13;;
11935;SDS011;6027;48.576;9.180;2022-10-31T02:26:51;9.02;;;2.70;;
11935;SDS011;6027;48.576;9.180;2022-10-31T02:32:41;7.65;;;3.00;;
11935;SDS011;6027;48.576;9.180;2022-10-31T02:43:43;8.27;;;3.20;;
11935;SDS011;6027;48.576;9.180;2022-10-31T02:49:18;4.82;;;3.13;;
11935;SDS011;6027;48.576;9.180;2022-10-31T02:51:50;4.72;;;3.22;;
11935;SDS011;6027;48.576;9.180;2022-10-31T02:54:25;7.45;;;2.70;;
11935;SDS011;6027;48.576;9.180;2022-10-31T02:57:00;6.88;;;3.20;;
11935;SDS011;6027;48.576;9.180;2022-10-31T02:59:29;6.07;;;2.83;;
11935;SDS011;6027;48.576;9.180;2022-10-31T03:12:54;4.28;;;3.13;;
11935;SDS011;6027;48.576;9.180;2022-10-31T03:15:49;5.65;;;2.63;;
11935;SDS011;6027;48.576;9.180;2022-10-31T03:21:02;2.75;;;2.47;;
11935;SDS011;6027;48.576;9.180;2022-10-31T03:23:38;3.47;;;2.97;;
11935;SDS011;6027;48.576;9.180;2022-10-31T03:26:06;5.55;;;2.92;;
11935;SDS011;6027;48.576;9.180;2022-10-31T03:28:36;2.80;;;2.60;;
11935;SDS011;6027;48.576;9.180;2022-10-31T03:31:06;4.05;;;2.78;;
11935;SDS011;6027;48.576;9.180;2022-10-31T03:33:34;8.50;;;3.17;;
11935;SDS011;6027;48.576;9.180;2022-10-31T03:36:02;47.45;;;4.28;;
11935;SDS011;6027;48.576;9.180;2022-10-31T03:38:31;59.92;;;4.07;;
11935;SDS011;6027;48.576;9.180;2022-10-31T03:40:58;106.07;;;4.90;;
11935;SDS011;6027;48.576;9.180;2022-10-31T03:43:28;65.55;;;4.40;;
11935;SDS011;6027;48.576;9.180;2022-10-31T03:45:57;46.40;;;4.70;;
11935;SDS011;6027;48.576;9.180;2022-10-31T03:48:24;45.53;;;5.28;;
11935;SDS011;6027;48.576;9.180;2022-10-31T03:50:59;37.13;;;4.25;;
11935;SDS011;6027;48.576;9.180;2022-10-31T03:53:34;26.00;;;4.30;;
11935;SDS011;6027;48.576;9.180;2022-10-31T03:56:17;5.88;;;3.72;;
11935;SDS011;6027;48.576;9.180;2022-10-31T03:59:01;24.58;;;3.22;;
11935;SDS011;6027;48.576;9.180;2022-10-31T04:01:33;9.90;;;3.38;;
11935;SDS011;6027;48.576;9.180;2022-10-31T04:04:02;11.35;;;3.22;;
11935;SDS011;6027;48.576;9.180;2022-10-31T04:06:28;10.15;;;3.50;;
11935;SDS011;6027;48.576;9.180;2022-10-31T04:08:57;11.98;;;3.10;;
11935;SDS011;6027;48.576;9.180;2022-10-31T04:11:28;8.82;;;3.10;;
11935;SDS011;6027;48.576;9.180;2022-10-31T04:13:58;20.65;;;3.00;;
11935;SDS011;6027;48.576;9.180;2022-10-31T04:16:25;6.43;;;2.95;;
11935;SDS011;6027;48.576;9.180;2022-10-31T04:18:51;3.22;;;3.00;;
11935;SDS011;6027;48.576;9.180;2022-10-31T04:21:17;4.75;;;3.08;;
11935;SDS011;6027;48.576;9.180;2022-10-31T04:23:43;4.63;;;2.60;;
11935;SDS011;6027;48.576;9.180;2022-10-31T04:26:10;4.20;;;2.50;;
11935;SDS011;6027;48.576;9.180;2022-10-31T04:28:36;5.75;;;3.10;;
11935;SDS011;6027;48.576;9.180;2022-10-31T04:31:02;2.90;;;2.70;;
11935;SDS011;6027;48.576;9.180;2022-10-31T04:33:27;3.15;;;2.70;;
11935;SDS011;6027;48.576;9.180;2022-10-31T04:35:53;2.97;;;2.70;;
11935;SDS011;6027;48.576;9.180;2022-10-31T04:38:18;4.22;;;2.70;;
11935;SDS011;6027;48.576;9.180;2022-10-31T04:40:44;4.72;;;2.45;;
11935;SDS011;6027;48.576;9.180;2022-10-31T04:43:10;3.38;;;2.70;;
11935;SDS011;6027;48.576;9.180;2022-10-31T04:45:36;4.50;;;3.20;;
11935;SDS011;6027;48.576;9.180;2022-10-31T04:48:02;4.43;;;2.42;;
11935;SDS011;6027;48.576;9.180;2022-10-31T04:50:28;4.78;;;3.13;;
11935;SDS011;6027;48.576;9.180;2022-10-31T04:52:53;4.97;;;3.03;;
11935;SDS011;6027;48.576;9.180;2022-10-31T04:55:19;4.32;;;2.83;;
11935;SDS011;6027;48.576;9.180;2022-10-31T04:57:45;6.75;;;2.83;;
11935;SDS011;6027;48.576;9.180;2022-10-31T05:00:13;4.65;;;2.92;;
11935;SDS011;6027;48.576;9.180;2022-10-31T05:02:46;5.15;;;2.70;;
11935;SDS011;6027;48.576;9.180;2022-10-31T05:05:15;3.28;;;2.80;;
11935;SDS011;6027;48.576;9.180;2022-10-31T05:07:42;4.05;;;2.85;;
11935;SDS011;6027;48.576;9.180;2022-10-31T05:10:09;3.78;;;2.72;;
11935;SDS011;6027;48.576;9.180;2022-10-31T05:12:37;4.50;;;2.80;;
11935;SDS011;6027;48.576;9.180;2022-10-31T05:15:03;3.63;;;3.08;;
11935;SDS011;6027;48.576;9.180;2022-10-31T05:17:30;9.15;;;4.10;;
11935;SDS011;6027;48.576;9.180;2022-10-31T05:19:57;10.90;;;3.53;;
11935;SDS011;6027;48.576;9.180;2022-10-31T05:22:23;10.32;;;3.58;;
11935;SDS011;6027;48.576;9.180;2022-10-31T05:24:50;5.22;;;3.40;;
11935;SDS011;6027;48.576;9.180;2022-10-31T05:27:16;4.18;;;3.50;;
11935;SDS011;6027;48.576;9.180;2022-10-31T05:29:41;5.35;;;3.53;;
11935;SDS011;6027;48.576;9.180;2022-10-31T05:32:07;4.20;;;3.42;;
11935;SDS011;6027;48.576;9.180;2022-10-31T05:34:32;5.53;;;3.30;;
11935;SDS011;6027;48.576;9.180;2022-10-31T05:36:58;3.55;;;2.90;;
11935;SDS011;6027;48.576;9.180;2022-10-31T05:39:23;4.80;;;3.40;;
11935;SDS011;6027;48.576;9.180;2022-10-31T05:41:49;6.88;;;3.33;;
11935;SDS011;6027;48.576;9.180;2022-10-31T05:44:14;6.15;;;2.80;;
11935;SDS011;6027;48.576;9.180;2022-10-31T05:46:40;3.20;;;2.90;;
11935;SDS011;6027;48.576;9.180;2022-10-31T05:49:05;3.97;;;3.38;;
11935;SDS011;6027;48.576;9.180;2022-10-31T05:51:31;5.55;;;3.50;;
11935;SDS011;6027;48.576;9.180;2022-10-31T05:53:56;4.20;;;3.00;;
11935;SDS011;6027;48.576;9.180;2022-10-31T05:56:21;5.90;;;3.20;;
11935;SDS011;6027;48.576;9.180;2022-10-31T05:58:47;3.28;;;2.97;;
11935;SDS011;6027;48.576;9.180;2022-10-31T06:01:12;4.97;;;3.28;;
11935;SDS011;6027;48.576;9.180;2022-10-31T06:03:38;5.20;;;3.08;;
11935;SDS011;6027;48.576;9.180;2022-10-31T06:06:03;7.28;;;3.63;;
11935;SDS011;6027;48.576;9.180;2022-10-31T06:08:29;5.15;;;3.53;;
11935;SDS011;6027;48.576;9.180;2022-10-31T06:10:54;7.03;;;5.18;;
11935;SDS011;6027;48.576;9.180;2022-10-31T06:13:20;10.68;;;9.57;;
11935;SDS011;6027;48.576;9.180;2022-10-31T06:18:13;7.82;;;4.70;;
11935;SDS011;6027;48.576;9.180;2022-10-31T06:20:39;7.78;;;4.50;;
11935;SDS011;6027;48.576;9.180;2022-10-31T06:23:04;7.65;;;4.45;;
11935;SDS011;6027;48.576;9.180;2022-10-31T06:25:30;8.25;;;4.40;;
11935;SDS011;6027;48.576;9.180;2022-10-31T06:27:55;7.10;;;3.90;;
11935;SDS011;6027;48.576;9.180;2022-10-31T06:30:21;5.70;;;4.18;;
11935;SDS011;6027;48.576;9.180;2022-10-31T06:32:46;8.38;;;3.88;;
11935;SDS011;6027;48.576;9.180;2022-10-31T06:35:12;5.45;;;3.70;;
11935;SDS011;6027;48.576;9.180;2022-10-31T06:37:38;6.13;;;3.58;;
11935;SDS011;6027;48.576;9.180;2022-10-31T06:40:04;7.00;;;3.90;;
11935;SDS011;6027;48.576;9.180;2022-10-31T06:42:30;7.47;;;4.35;;
11935;SDS011;6027;48.576;9.180;2022-10-31T06:44:55;5.75;;;4.05;;
11935;SDS011;6027;48.576;9.180;2022-10-31T06:47:21;5.68;;;3.58;;
11935;SDS011;6027;48.576;9.180;2022-10-31T06:49:46;4.35;;;3.80;;
11935;SDS011;6027;48.576;9.180;2022-10-31T06:52:11;4.15;;;3.35;;
11935;SDS011;6027;48.576;9.180;2022-10-31T06:54:37;6.65;;;3.53;;
11935;SDS011;6027;48.576;9.180;2022-10-31T06:57:02;8.43;;;3.90;;
11935;SDS011;6027;48.576;9.180;2022-10-31T06:59:28;4.82;;;3.67;;
11935;SDS011;6027;48.576;9.180;2022-10-31T07:01:53;7.07;;;3.58;;
11935;SDS011;6027;48.576;9.180;2022-10-31T07:04:19;5.53;;;3.45;;
11935;SDS011;6027;48.576;9.180;2022-10-31T07:06:44;6.57;;;3.42;;
11935;SDS011;6027;48.576;9.180;2022-10-31T07:09:10;6.10;;;3.50;;
11935;SDS011;6027;48.576;9.180;2022-10-31T07:11:35;6.95;;;3.70;;
11935;SDS011;6027;48.576;9.180;2022-10-31T07:14:01;4.63;;;3.58;;
11935;SDS011;6027;48.576;9.180;2022-10-31T07:16:26;6.78;;;4.05;;
11935;SDS011;6027;48.576;9.180;2022-10-31T07:18:52;8.60;;;4.10;;
11935;SDS011;6027;48.576;9.180;2022-10-31T07:21:17;6.75;;;3.90;;
11935;SDS011;6027;48.576;9.180;2022-10-31T07:23:49;7.00;;;3.65;;
11935;SDS011;6027;48.576;9.180;2022-10-31T07:26:14;6.63;;;3.92;;
11935;SDS011;6027;48.576;9.180;2022-10-31T07:28:39;6.68;;;4.03;;
11935;SDS011;6027;48.576;9.180;2022-10-31T07:31:05;5.85;;;4.10;;
11935;SDS011;6027;48.576;9.180;2022-10-31T07:33:30;7.70;;;4.50;;
11935;SDS011;6027;48.576;9.180;2022-10-31T07:35:56;6.10;;;4.63;;
11935;SDS011;6027;48.576;9.180;2022-10-31T07:38:21;9.60;;;4.22;;
11935;SDS011;6027;48.576;9.180;2022-10-31T07:40:49;10.35;;;3.72;;
11935;SDS011;6027;48.576;9.180;2022-10-31T07:43:17;11.13;;;4.82;;
11935;SDS011;6027;48.576;9.180;2022-10-31T07:45:43;8.25;;;4.20;;
11935;SDS011;6027;48.576;9.180;2022-10-31T07:48:13;8.20;;;4.30;;
11935;SDS011;6027;48.576;9.180;2022-10-31T07:50:39;6.95;;;3.72;;
11935;SDS011;6027;48.576;9.180;2022-10-31T07:53:06;6.93;;;3.78;;
11935;SDS011;6027;48.576;9.180;2022-10-31T07:55:33;5.45;;;4.25;;
11935;SDS011;6027;48.576;9.180;2022-10-31T07:57:59;8.15;;;3.92;;
11935;SDS011;6027;48.576;9.180;2022-10-31T08:00:38;6.50;;;3.85;;
11935;SDS011;6027;48.576;9.180;2022-10-31T08:03:05;6.63;;;4.00;;
11935;SDS011;6027;48.576;9.180;2022-10-31T08:05:33;6.32;;;4.40;;
11935;SDS011;6027;48.576;9.180;2022-10-31T08:07:59;8.43;;;3.80;;
11935;SDS011;6027;48.576;9.180;2022-10-31T08:10:25;5.72;;;3.78;;
11935;SDS011;6027;48.576;9.180;2022-10-31T08:12:58;8.05;;;4.18;;
11935;SDS011;6027;48.576;9.180;2022-10-31T08:15:26;5.95;;;4.25;;
11935;SDS011;6027;48.576;9.180;2022-10-31T08:17:51;6.05;;;3.72;;
11935;SDS011;6027;48.576;9.180;2022-10-31T08:20:17;6.75;;;3.90;;
11935;SDS011;6027;48.576;9.180;2022-10-31T08:22:43;11.57;;;4.25;;
11935;SDS011;6027;48.576;9.180;2022-10-31T08:25:27;6.85;;;3.97;;
11935;SDS011;6027;48.576;9.180;2022-10-31T08:27:55;8.23;;;4.43;;
11935;SDS011;6027;48.576;9.180;2022-10-31T08:30:23;5.43;;;4.25;;
11935;SDS011;6027;48.576;9.180;2022-10-31T08:32:58;6.32;;;3.70;;
11935;SDS011;6027;48.576;9.180;2022-10-31T08:35:24;9.88;;;4.10;;
11935;SDS011;6027;48.576;9.180;2022-10-31T08:37:54;6.63;;;4.10;;
11935;SDS011;6027;48.576;9.180;2022-10-31T08:40:20;8.48;;;4.10;;
11935;SDS011;6027;48.576;9.180;2022-10-31T08:42:46;7.90;;;4.22;;
11935;SDS011;6027;48.576;9.180;2022-10-31T08:45:12;5.32;;;4.03;;
11935;SDS011;6027;48.576;9.180;2022-10-31T08:47:37;5.60;;;4.00;;
11935;SDS011;6027;48.576;9.180;2022-10-31T08:50:03;5.15;;;4.13;;
11935;SDS011;6027;48.576;9.180;2022-10-31T08:52:29;8.93;;;4.03;;
11935;SDS011;6027;48.576;9.180;2022-10-31T08:54:54;6.38;;;3.80;;
11935;SDS011;6027;48.576;9.180;2022-10-31T08:57:22;8.32;;;3.70;;
11935;SDS011;6027;48.576;9.180;2022-10-31T08:59:47;8.25;;;4.28;;
11935;SDS011;6027;48.576;9.180;2022-10-31T09:02:13;9.23;;;4.30;;
11935;SDS011;6027;48.576;9.180;2022-10-31T09:04:38;7.15;;;3.92;;
11935;SDS011;6027;48.576;9.180;2022-10-31T09:07:04;6.72;;;4.28;;
11935;SDS011;6027;48.576;9.180;2022-10-31T09:09:29;6.53;;;4.65;;
11935;SDS011;6027;48.576;9.180;2022-10-31T09:11:55;9.50;;;4.55;;
11935;SDS011;6027;48.576;9.180;2022-10-31T09:14:20;5.85;;;4.10;;
11935;SDS011;6027;48.576;9.180;2022-10-31T09:16:46;7.55;;;4.50;;
11935;SDS011;6027;48.576;9.180;2022-10-31T09:19:11;8.60;;;4.00;;
11935;SDS011;6027;48.576;9.180;2022-10-31T09:21:37;6.60;;;4.22;;
11935;SDS011;6027;48.576;9.180;2022-10-31T09:24:02;7.15;;;4.78;;
11935;SDS011;6027;48.576;9.180;2022-10-31T09:26:28;8.05;;;5.45;;
11935;SDS011;6027;48.576;9.180;2022-10-31T09:28:53;9.93;;;5.15;;
11935;SDS011;6027;48.576;9.180;2022-10-31T09:31:18;9.10;;;4.68;;
11935;SDS011;6027;48.576;9.180;2022-10-31T09:33:44;5.97;;;4.10;;
11935;SDS011;6027;48.576;9.180;2022-10-31T09:36:09;5.32;;;3.85;;
11935;SDS011;6027;48.576;9.180;2022-10-31T09:38:35;11.98;;;4.00;;
11935;SDS011;6027;48.576;9.180;2022-10-31T09:49:29;4.88;;;4.07;;
11935;SDS011;6027;48.576;9.180;2022-10-31T09:57:07;5.90;;;3.90;;
11935;SDS011;6027;48.576;9.180;2022-10-31T09:59:39;7.03;;;3.72;;
11935;SDS011;6027;48.576;9.180;2022-10-31T10:05:13;4.22;;;3.22;;
11935;SDS011;6027;48.576;9.180;2022-10-31T10:11:13;7.13;;;3.63;;
11935;SDS011;6027;48.576;9.180;2022-10-31T10:18:24;5.25;;;3.65;;
11935;SDS011;6027;48.576;9.180;2022-10-31T10:23:42;10.38;;;3.95;;
11935;SDS011;6027;48.576;9.180;2022-10-31T10:26:38;9.25;;;3.03;;
11935;SDS011;6027;48.576;9.180;2022-10-31T10:31:37;6.32;;;3.17;;
11935;SDS011;6027;48.576;9.180;2022-10-31T10:34:08;7.38;;;2.80;;
11935;SDS011;6027;48.576;9.180;2022-10-31T10:36:44;6.63;;;3.40;;
11935;SDS011;6027;48.576;9.180;2022-10-31T10:39:20;7.05;;;3.38;;
11935;SDS011;6027;48.576;9.180;2022-10-31T10:41:50;6.55;;;3.58;;
11935;SDS011;6027;48.576;9.180;2022-10-31T10:44:38;5.80;;;2.95;;
11935;SDS011;6027;48.576;9.180;2022-10-31T10:47:27;8.60;;;3.30;;
11935;SDS011;6027;48.576;9.180;2022-10-31T10:50:18;5.13;;;3.30;;
11935;SDS011;6027;48.576;9.180;2022-10-31T10:55:23;6.63;;;3.28;;
11935;SDS011;6027;48.576;9.180;2022-10-31T10:57:58;9.93;;;4.00;;
11935;SDS011;6027;48.576;9.180;2022-10-31T11:00:31;6.25;;;3.45;;
11935;SDS011;6027;48.576;9.180;2022-10-31T11:03:00;6.50;;;3.08;;
11935;SDS011;6027;48.576;9.180;2022-10-31T11:05:36;8.93;;;3.45;;
11935;SDS011;6027;48.576;9.180;2022-10-31T11:08:06;7.80;;;3.80;;
11935;SDS011;6027;48.576;9.180;2022-10-31T11:10:31;6.70;;;3.22;;
11935;SDS011;6027;48.576;9.180;2022-10-31T11:15:31;8.25;;;3.75;;
11935;SDS011;6027;48.576;9.180;2022-10-31T11:18:20;4.28;;;3.25;;
11935;SDS011;6027;48.576;9.180;2022-10-31T11:20:54;7.18;;;3.22;;
11935;SDS011;6027;48.576;9.180;2022-10-31T11:23:23;4.45;;;3.17;;
11935;SDS011;6027;48.576;9.180;2022-10-31T11:25:50;7.75;;;3.38;;
11935;SDS011;6027;48.576;9.180;2022-10-31T11:28:25;5.75;;;3.10;;
11935;SDS011;6027;48.576;9.180;2022-10-31T11:30:55;8.90;;;3.50;;
11935;SDS011;6027;48.576;9.180;2022-10-31T11:33:27;9.82;;;3.72;;
11935;SDS011;6027;48.576;9.180;2022-10-31T11:35:57;5.10;;;2.90;;
11935;SDS011;6027;48.576;9.180;2022-10-31T11:38:32;5.97;;;2.75;;
11935;SDS011;6027;48.576;9.180;2022-10-31T11:41:17;6.63;;;3.20;;
11935;SDS011;6027;48.576;9.180;2022-10-31T11:43:59;5.03;;;2.90;;
11935;SDS011;6027;48.576;9.180;2022-10-31T11:46:38;5.32;;;2.88;;
11935;SDS011;6027;48.576;9.180;2022-10-31T11:49:11;7.38;;;3.53;;
11935;SDS011;6027;48.576;9.180;2022-10-31T11:51:41;9.68;;;3.42;;
11935;SDS011;6027;48.576;9.180;2022-10-31T11:54:14;10.75;;;3.03;;
11935;SDS011;6027;48.576;9.180;2022-10-31T11:57:07;7.47;;;3.17;;
11935;SDS011;6027;48.576;9.180;2022-10-31T11:59:56;7.90;;;3.70;;
11935;SDS011;6027;48.576;9.180;2022-10-31T12:02:23;7.82;;;3.33;;
11935;SDS011;6027;48.576;9.180;2022-10-31T12:05:16;6.82;;;2.92;;
11935;SDS011;6027;48.576;9.180;2022-10-31T12:07:48;4.75;;;3.28;;
11935;SDS011;6027;48.576;9.180;2022-10-31T12:10:14;8.27;;;3.33;;
11935;SDS011;6027;48.576;9.180;2022-10-31T12:12:48;5.00;;;3.03;;
11935;SDS011;6027;48.576;9.180;2022-10-31T12:15:38;7.75;;;3.20;;
11935;SDS011;6027;48.576;9.180;2022-10-31T12:32:15;7.97;;;3.22;;
11935;SDS011;6027;48.576;9.180;2022-10-31T12:37:34;6.35;;;3.60;;
11935;SDS011;6027;48.576;9.180;2022-10-31T12:42:41;8.60;;;3.80;;
11935;SDS011;6027;48.576;9.180;2022-10-31T12:51:02;6.68;;;3.40;;
11935;SDS011;6027;48.576;9.180;2022-10-31T12:58:55;8.15;;;3.35;;
11935;SDS011;6027;48.576;9.180;2022-10-31T13:04:04;9.43;;;3.70;;
11935;SDS011;6027;48.576;9.180;2022-10-31T13:06:56;6.68;;;3.83;;
11935;SDS011;6027;48.576;9.180;2022-10-31T13:12:16;10.38;;;4.40;;
11935;SDS011;6027;48.576;9.180;2022-10-31T13:14:47;10.35;;;4.70;;
11935;SDS011;6027;48.576;9.180;2022-10-31T13:17:27;9.30;;;4.00;;
11935;SDS011;6027;48.576;9.180;2022-10-31T13:19:58;8.02;;;4.07;;
11935;SDS011;6027;48.576;9.180;2022-10-31T13:22:49;8.07;;;3.35;;
11935;SDS011;6027;48.576;9.180;2022-10-31T13:25:21;8.52;;;3.92;;
11935;SDS011;6027;48.576;9.180;2022-10-31T13:27:58;6.68;;;3.95;;
11935;SDS011;6027;48.576;9.180;2022-10-31T13:30:38;10.32;;;3.50;;
11935;SDS011;6027;48.576;9.180;2022-10-31T13:43:51;9.57;;;4.13;;
11935;SDS011;6027;48.576;9.180;2022-10-31T13:46:40;6.68;;;3.50;;
11935;SDS011;6027;48.576;9.180;2022-10-31T13:54:36;10.32;;;3.70;;
11935;SDS011;6027;48.576;9.180;2022-10-31T13:57:07;7.70;;;3.70;;
11935;SDS011;6027;48.576;9.180;2022-10-31T13:59:46;6.50;;;3.30;;
11935;SDS011;6027;48.576;9.180;2022-10-31T14:02:15;7.05;;;3.67;;
11935;SDS011;6027;48.576;9.180;2022-10-31T14:04:50;8.57;;;3.50;;
11935;SDS011;6027;48.576;9.180;2022-10-31T14:07:23;8.90;;;3.50;;
11935;SDS011;6027;48.576;9.180;2022-10-31T14:10:02;8.32;;;3.30;;
11935;SDS011;6027;48.576;9.180;2022-10-31T14:12:36;6.07;;;3.08;;
11935;SDS011;6027;48.576;9.180;2022-10-31T14:15:05;5.50;;;3.30;;
11935;SDS011;6027;48.576;9.180;2022-10-31T14:17:47;4.43;;;2.97;;
11935;SDS011;6027;48.576;9.180;2022-10-31T14:22:42;6.72;;;3.38;;
11935;SDS011;6027;48.576;9.180;2022-10-31T14:28:01;15.48;;;9.00;;
11935;SDS011;6027;48.576;9.180;2022-10-31T14:30:54;8.55;;;4.05;;
11935;SDS011;6027;48.576;9.180;2022-10-31T14:33:22;6.13;;;3.00;;
11935;SDS011;6027;48.576;9.180;2022-10-31T14:41:06;7.90;;;3.38;;
11935;SDS011;6027;48.576;9.180;2022-10-31T14:49:31;5.90;;;3.53;;
11935;SDS011;6027;48.576;9.180;2022-10-31T14:52:12;6.15;;;3.17;;
11935;SDS011;6027;48.576;9.180;2022-10-31T14:54:43;5.80;;;3.22;;
11935;SDS011;6027;48.576;9.180;2022-10-31T14:57:15;10.30;;;3.35;;
11935;SDS011;6027;48.576;9.180;2022-10-31T14:59:48;7.80;;;3.30;;
11935;SDS011;6027;48.576;9.180;2022-10-31T15:02:19;8.70;;;2.83;;
11935;SDS011;6027;48.576;9.180;2022-10-31T15:04:53;7.45;;;3.58;;
11935;SDS011;6027;48.576;9.180;2022-10-31T15:07:21;6.78;;;3.72;;
11935;SDS011;6027;48.576;9.180;2022-10-31T15:09:59;7.38;;;3.78;;
11935;SDS011;6027;48.576;9.180;2022-10-31T15:12:28;6.80;;;3.58;;
11935;SDS011;6027;48.576;9.180;2022-10-31T15:14:55;8.10;;;3.63;;
11935;SDS011;6027;48.576;9.180;2022-10-31T15:17:22;13.20;;;4.18;;
11935;SDS011;6027;48.576;9.180;2022-10-31T15:19:49;7.57;;;3.40;;
11935;SDS011;6027;48.576;9.180;2022-10-31T15:22:17;11.55;;;4.30;;
11935;SDS011;6027;48.576;9.180;2022-10-31T15:24:45;13.45;;;4.35;;
11935;SDS011;6027;48.576;9.180;2022-10-31T15:27:16;6.25;;;3.90;;
11935;SDS011;6027;48.576;9.180;2022-10-31T15:29:55;8.68;;;3.97;;
11935;SDS011;6027;48.576;9.180;2022-10-31T15:32:25;6.53;;;3.78;;
11935;SDS011;6027;48.576;9.180;2022-10-31T15:34:53;9.02;;;3.83;;
11935;SDS011;6027;48.576;9.180;2022-10-31T15:37:21;11.80;;;4.47;;
11935;SDS011;6027;48.576;9.180;2022-10-31T15:39:50;10.57;;;4.40;;
11935;SDS011;6027;48.576;9.180;2022-10-31T15:42:17;16.25;;;9.48;;
11935;SDS011;6027;48.576;9.180;2022-10-31T15:44:44;35.78;;;19.52;;
11935;SDS011;6027;48.576;9.180;2022-10-31T15:47:15;23.80;;;13.00;;
11935;SDS011;6027;48.576;9.180;2022-10-31T15:49:49;14.52;;;8.32;;
11935;SDS011;6027;48.576;9.180;2022-10-31T15:52:18;20.73;;;8.38;;
11935;SDS011;6027;48.576;9.180;2022-10-31T15:54:48;13.68;;;7.93;;
11935;SDS011;6027;48.576;9.180;2022-10-31T15:57:16;16.65;;;6.72;;
11935;SDS011;6027;48.576;9.180;2022-10-31T15:59:46;7.68;;;5.43;;
11935;SDS011;6027;48.576;9.180;2022-10-31T16:02:13;11.93;;;5.80;;
11935;SDS011;6027;48.576;9.180;2022-10-31T16:04:56;14.45;;;7.38;;
11935;SDS011;6027;48.576;9.180;2022-10-31T16:07:23;14.43;;;7.32;;
11935;SDS011;6027;48.576;9.180;2022-10-31T16:09:57;10.43;;;6.22;;
11935;SDS011;6027;48.576;9.180;2022-10-31T16:12:29;15.05;;;6.70;;
11935;SDS011;6027;48.576;9.180;2022-10-31T16:15:02;11.27;;;5.60;;
11935;SDS011;6027;48.576;9.180;2022-10-31T16:17:30;13.32;;;8.02;;
11935;SDS011;6027;48.576;9.180;2022-10-31T16:19:57;16.52;;;9.88;;
11935;SDS011;6027;48.576;9.180;2022-10-31T16:22:28;21.13;;;9.68;;
11935;SDS011;6027;48.576;9.180;2022-10-31T16:25:42;17.45;;;9.93;;
11935;SDS011;6027;48.576;9.180;2022-10-31T16:28:02;16.50;;;8.82;;
11935;SDS011;6027;48.576;9.180;2022-10-31T16:30:36;16.45;;;9.10;;
11935;SDS011;6027;48.576;9.180;2022-10-31T16:33:04;16.20;;;10.18;;
11935;SDS011;6027;48.576;9.180;2022-10-31T16:35:45;25.38;;;12.77;;
11935;SDS011;6027;48.576;9.180;2022-10-31T16:38:10;14.90;;;10.27;;
11935;SDS011;6027;48.576;9.180;2022-10-31T16:40:37;17.95;;;11.13;;
11935;SDS011;6027;48.576;9.180;2022-10-31T16:43:03;24.67;;;13.15;;
11935;SDS011;6027;48.576;9.180;2022-10-31T16:45:30;17.92;;;11.57;;
11935;SDS011;6027;48.576;9.180;2022-10-31T16:48:10;17.83;;;11.73;;
11935;SDS011;6027;48.576;9.180;2022-10-31T16:50:39;18.40;;;12.07;;
11935;SDS011;6027;48.576;9.180;2022-10-31T16:53:06;17.67;;;10.50;;
11935;SDS011;6027;48.576;9.180;2022-10-31T16:55:31;16.27;;;9.50;;
11935;SDS011;6027;48.576;9.180;2022-10-31T16:58:00;16.05;;;10.13;;
11935;SDS011;6027;48.576;9.180;2022-10-31T17:00:26;20.10;;;10.93;;
11935;SDS011;6027;48.576;9.180;2022-10-31T17:02:53;14.77;;;9.68;;
11935;SDS011;6027;48.576;9.180;2022-10-31T17:05:21;15.25;;;8.95;;
11935;SDS011;6027;48.576;9.180;2022-10-31T17:10:21;14.98;;;8.43;;
11935;SDS011;6027;48.576;9.180;2022-10-31T17:12:47;15.32;;;9.25;;
11935;SDS011;6027;48.576;9.180;2022-10-31T17:15:15;16.75;;;8.48;;
11935;SDS011;6027;48.576;9.180;2022-10-31T17:17:41;13.95;;;8.50;;
11935;SDS011;6027;48.576;9.180;2022-10-31T17:20:26;14.68;;;7.95;;
11935;SDS011;6027;48.576;9.180;2022-10-31T17:22:54;14.68;;;7.80;;
11935;SDS011;6027;48.576;9.180;2022-10-31T17:25:25;21.50;;;13.15;;
11935;SDS011;6027;48.576;9.180;2022-10-31T17:27:53;14.63;;;11.15;;
11935;SDS011;6027;48.576;9.180;2022-10-31T17:30:19;11.70;;;8.70;;
11935;SDS011;6027;48.576;9.180;2022-10-31T17:32:46;19.75;;;10.93;;
11935;SDS011;6027;48.576;9.180;2022-10-31T17:35:13;16.60;;;12.88;;
11935;SDS011;6027;48.576;9.180;2022-10-31T17:37:39;14.18;;;10.57;;
11935;SDS011;6027;48.576;9.180;2022-10-31T17:40:07;15.63;;;12.38;;